Beverly Hills, CA (90209)

8:11 AM PDT on September 19, 2014 (GMT -0700)
West Hollywood | Change Station
CLOSE
Current Station
Personal Weather Station
Location: West Hollywood, CA
Elevation: 217 ft
Nearby Weather Stations

Elev 217 ft 34.09 °N, 118.38 °W | Updated 1 minute ago

Overcast
Overcast
70.6 °F
Feels Like 72 °F
N
0.0
Wind Variable Wind from NNE
Gusts 0.0 mph

Today
High -- | Low -- °F
--% Chance of Precip.
Yesterday
High -- | Low -- °F
Precip. -- in
6:39 AM 6:54 PM
Waning Crescent, 18% visible
Pressure 29.91 in
Visibility 10.0 miles
Clouds Overcast 2700 ft
Heat Index 72 °F
Dew Point 63 °F
Humidity 78%
Rainfall 0.00 in
Snow Depth 1 in , 1 in , 1 in
UV 0 out of 12
Pollen 6.90 out of 12
Ozone Good
Flu Activity Not available.
METAR KSMO 191451Z 22003KT 10SM OVC027 21/16 A2991 RMK AO2 SLP126 T02060161 53010 $

More Conditions Fewer Conditions

Pressure 29.91 in
Visibility 10.0 miles
Clouds Overcast 2700 ft
Heat Index 72 °F
Dew Point 63 °F
Humidity 78%
Rainfall 0.00 in
Snow Depth 1 in , 1 in , 1 in
UV 0 out of 12
Pollen 6.90 out of 12
Ozone Good
Flu Activity Not available.
METAR KSMO 191451Z 22003KT 10SM OVC027 21/16 A2991 RMK AO2 SLP126 T02060161 53010 $

More Conditions Fewer Conditions

10-Day Weather Forecast

Almanac

Astronomy

Sep. 19, 2014 Rise Set
Actual Time 6:39 AM PDT 6:54 PM PDT
Civil Twilight 6:14 AM PDT 7:19 PM PDT
Nautical Twilight 5:45 AM PDT 7:48 PM PDT
Astronomical Twilight 5:15 AM PDT 8:18 PM PDT
Moon 2:38 AM PDT 4:18 PM PDT
Length of Visible Light 13h 04m
Length of Day
12h 14m
Tomorrow will be 2m 6s shorter.
Waning Crescent, 18% of the Moon is Illuminated
Today
Waning Crescent
Sep 24
New
Oct 1
First Quarter
Oct 8
Full
Oct 15
Last Quarter

Today's Extremes

State Highs State Lows

Community

WunderPhotos

Upload Photos

1,754,634 photos uploaded!

WunderBlogs® & News

By Dr. Jeff Masters
Director of Meteorology, Weather Underground
By Kari Strenfel
Meteorologist, Weather Underground
By Christopher C. Burt
Weather Historian, Weather Underground
September 19, 2014
September 19, 2014
September 19, 2014

Nearby

Air Quality

  Air Quality AQ Index Pollutant
Yesterday Good
OZONE
Current Good
OZONE
Friday Good
PM10
Friday Good
OZONE
Friday Good
CO
Friday Good
NO2

Snow Depth

Station Depth Elevation
Summit Meadow 1 in 9122 ft
Independence Creek 0 in 6500 ft
Spratt Creek 1 in 6200 ft
Monitor Pass 1 in 8350 ft
Leavitt Meadows 0 in 7200 ft

Earthquake Activity

City Distance Mag. Time & Date
Aguanga, California 101 miles 2.5 1:38 AM PDT
2014-09-19
Corcoran, California 155 miles 3.0 3:59 PM PDT
2014-09-18
Minimum magnitude displayed is 2.5.

Coastal Water Temperatures

Place Temperature
Santa Monica Pier 66.9 °F
Los Angeles, CA 66.9 °F
La Jolla, CA 72.0 °F

Nearby Weather Stations